createdAt,value
2023-05-14T00:02:03.662Z,19.33
2023-05-14T00:04:31.409Z,20.65
2023-05-14T00:06:59.038Z,18.15
2023-05-14T00:09:26.578Z,17.27
2023-05-14T00:11:54.115Z,22.23
2023-05-14T00:14:22.040Z,18.27
2023-05-14T00:16:49.983Z,16.83
2023-05-14T00:19:18.014Z,18.70
2023-05-14T00:21:45.673Z,16.87
2023-05-14T00:24:13.235Z,17.92
2023-05-14T00:26:40.843Z,17.90
2023-05-14T00:29:08.366Z,18.65
2023-05-14T00:31:35.996Z,17.90
2023-05-14T00:34:03.982Z,18.00
2023-05-14T00:36:31.744Z,18.20
2023-05-14T00:38:59.275Z,16.60
2023-05-14T00:41:26.946Z,19.20
2023-05-14T00:43:54.939Z,18.05
2023-05-14T00:46:22.634Z,19.57
2023-05-14T00:48:51.847Z,19.10
2023-05-14T00:51:20.016Z,18.63
2023-05-14T00:53:47.902Z,17.38
2023-05-14T00:56:16.690Z,16.63
2023-05-14T00:58:44.268Z,20.17
2023-05-14T01:01:15.348Z,20.13
2023-05-14T01:03:43.589Z,18.13
2023-05-14T01:06:14.295Z,17.88
2023-05-14T01:08:59.652Z,15.90
2023-05-14T01:11:36.743Z,17.77
2023-05-14T01:14:34.640Z,16.95
2023-05-14T01:17:05.031Z,16.63
2023-05-14T01:19:42.991Z,19.50
2023-05-14T01:22:11.426Z,17.65
2023-05-14T01:24:39.430Z,17.47
2023-05-14T01:27:23.483Z,18.75
2023-05-14T01:30:03.178Z,16.83
2023-05-14T01:32:33.292Z,18.40
2023-05-14T01:35:01.852Z,17.98
2023-05-14T01:37:31.244Z,18.07
2023-05-14T01:40:00.399Z,16.73
2023-05-14T01:42:29.203Z,17.83
2023-05-14T01:44:56.889Z,18.65
2023-05-14T01:47:24.603Z,19.38
2023-05-14T01:49:52.174Z,18.20
2023-05-14T01:52:21.324Z,17.13
2023-05-14T01:54:49.175Z,17.02
2023-05-14T01:57:16.841Z,16.15
2023-05-14T01:59:44.485Z,17.67
2023-05-14T02:02:12.046Z,19.03
2023-05-14T02:04:39.782Z,19.17
2023-05-14T02:07:07.453Z,16.58
2023-05-14T02:09:35.103Z,16.88
2023-05-14T02:12:02.660Z,17.92
2023-05-14T02:14:30.379Z,16.47
2023-05-14T02:16:58.114Z,16.63
2023-05-14T02:19:25.767Z,18.77
2023-05-14T02:21:53.333Z,18.25
2023-05-14T02:24:20.968Z,17.05
2023-05-14T02:26:48.568Z,17.50
2023-05-14T02:29:16.107Z,15.43
2023-05-14T02:31:43.845Z,17.88
2023-05-14T02:34:11.706Z,16.80
2023-05-14T02:36:39.221Z,18.17
2023-05-14T02:39:06.794Z,19.73
2023-05-14T02:41:34.414Z,17.38
2023-05-14T02:44:02.131Z,17.52
2023-05-14T02:46:31.372Z,16.40
2023-05-14T02:48:59.245Z,17.60
2023-05-14T02:51:27.343Z,16.10
2023-05-14T02:53:54.906Z,14.63
2023-05-14T02:56:22.679Z,14.85
2023-05-14T02:58:50.340Z,15.50
2023-05-14T03:01:19.196Z,13.95
2023-05-14T03:03:47.423Z,15.00
2023-05-14T03:06:15.437Z,17.30
2023-05-14T03:08:43.049Z,15.57
2023-05-14T03:11:10.677Z,20.00
2023-05-14T03:13:40.788Z,18.52
2023-05-14T03:16:08.471Z,15.67
2023-05-14T03:18:37.267Z,16.20
2023-05-14T03:21:05.002Z,18.40
2023-05-14T03:27:33.710Z,14.63
2023-05-14T03:34:14.521Z,16.42
2023-05-14T03:36:42.168Z,15.82
2023-05-14T03:39:09.821Z,14.43
2023-05-14T03:44:37.030Z,17.00
2023-05-14T03:50:53.284Z,15.40
2023-05-14T03:53:20.997Z,14.75
2023-05-14T03:55:48.580Z,14.45
2023-05-14T03:58:17.635Z,15.73
2023-05-14T04:00:45.197Z,16.50
2023-05-14T04:03:13.110Z,17.75
2023-05-14T04:05:41.166Z,14.32
2023-05-14T04:08:08.968Z,15.05
2023-05-14T04:10:36.574Z,16.70
2023-05-14T04:13:04.227Z,15.88
2023-05-14T04:15:35.973Z,17.63
2023-05-14T04:18:03.757Z,16.30
2023-05-14T04:20:31.611Z,13.95
2023-05-14T04:22:59.204Z,14.93
2023-05-14T04:25:26.783Z,14.60
2023-05-14T04:27:54.427Z,15.82
2023-05-14T04:30:22.358Z,14.70
2023-05-14T04:32:50.210Z,14.88
2023-05-14T04:35:18.101Z,14.43
2023-05-14T04:37:48.038Z,14.60
2023-05-14T04:40:19.096Z,15.30
2023-05-14T04:42:46.624Z,13.68
2023-05-14T04:45:14.671Z,14.00
2023-05-14T04:47:42.572Z,13.27
2023-05-14T04:50:10.187Z,13.35
2023-05-14T04:52:38.509Z,15.13
2023-05-14T04:55:06.736Z,14.20
2023-05-14T04:57:34.461Z,12.80
2023-05-14T05:00:02.326Z,14.27
2023-05-14T05:02:29.964Z,13.38
2023-05-14T05:04:57.480Z,13.32
2023-05-14T05:07:25.058Z,13.30
2023-05-14T05:09:52.728Z,13.02
2023-05-14T05:12:21.511Z,12.27
2023-05-14T05:14:48.994Z,12.75
2023-05-14T05:17:16.632Z,11.60
2023-05-14T05:19:44.763Z,12.90
2023-05-14T05:22:12.506Z,11.77
2023-05-14T05:24:40.065Z,13.73
2023-05-14T05:27:07.881Z,12.57
2023-05-14T05:29:37.020Z,13.57
2023-05-14T05:32:05.008Z,13.82
2023-05-14T05:34:32.750Z,12.75
2023-05-14T05:37:00.535Z,13.23
2023-05-14T05:39:28.211Z,12.73
2023-05-14T05:41:55.760Z,11.88
2023-05-14T05:44:23.275Z,12.27
2023-05-14T05:46:51.242Z,13.20
2023-05-14T05:49:18.829Z,11.07
2023-05-14T05:51:46.378Z,13.45
2023-05-14T05:54:13.957Z,11.90
2023-05-14T05:56:41.526Z,12.82
2023-05-14T05:59:09.318Z,12.02
2023-05-14T06:01:37.437Z,12.67
2023-05-14T06:04:06.400Z,12.05
2023-05-14T06:06:33.963Z,12.35
2023-05-14T06:09:02.173Z,11.57
2023-05-14T06:11:29.746Z,11.35
2023-05-14T06:13:57.280Z,12.83
2023-05-14T06:16:25.500Z,12.63
2023-05-14T06:18:54.525Z,11.68
2023-05-14T06:21:22.195Z,11.43
2023-05-14T06:23:49.858Z,11.82
2023-05-14T06:26:17.378Z,12.17
2023-05-14T06:28:44.953Z,12.60
2023-05-14T06:31:12.633Z,11.10
2023-05-14T06:33:40.185Z,11.65
2023-05-14T06:36:08.352Z,14.02
2023-05-14T06:38:36.015Z,10.87
2023-05-14T06:41:03.642Z,11.70
2023-05-14T06:43:31.163Z,12.95
2023-05-14T06:45:58.739Z,9.68
2023-05-14T06:48:27.965Z,10.73
2023-05-14T06:50:55.887Z,9.90
2023-05-14T06:53:23.488Z,8.65
2023-05-14T06:55:51.046Z,9.18
2023-05-14T06:58:18.616Z,8.07
2023-05-14T07:00:46.255Z,8.60
2023-05-14T07:03:13.785Z,8.20
2023-05-14T07:05:41.421Z,7.38
2023-05-14T07:08:08.972Z,6.53
2023-05-14T07:10:36.594Z,7.38
2023-05-14T07:13:04.112Z,7.35
2023-05-14T07:15:32.126Z,8.13
2023-05-14T07:17:59.681Z,8.75
2023-05-14T07:20:27.445Z,7.03
2023-05-14T07:22:55.290Z,11.68
2023-05-14T07:25:22.913Z,8.35
2023-05-14T07:27:50.610Z,7.10
2023-05-14T07:30:18.221Z,7.32
2023-05-14T07:32:46.094Z,7.47
2023-05-14T07:35:13.799Z,8.05
2023-05-14T07:37:42.970Z,13.27
2023-05-14T07:40:10.810Z,7.03
2023-05-14T07:42:38.373Z,7.35
2023-05-14T07:45:06.597Z,7.05
2023-05-14T07:47:36.282Z,6.68
2023-05-14T07:50:04.186Z,6.22
2023-05-14T07:52:33.392Z,7.47
2023-05-14T07:55:01.585Z,8.05
2023-05-14T07:57:29.173Z,6.63
2023-05-14T07:59:57.068Z,6.88
2023-05-14T08:02:24.691Z,6.90
2023-05-14T08:04:52.463Z,7.57
2023-05-14T08:07:20.049Z,6.78
2023-05-14T08:09:47.685Z,7.30
2023-05-14T08:12:16.100Z,6.00
2023-05-14T08:14:43.727Z,6.00
2023-05-14T08:17:11.484Z,6.87
2023-05-14T08:19:39.251Z,7.13
2023-05-14T08:22:07.402Z,6.93
2023-05-14T08:24:35.055Z,5.47
2023-05-14T08:27:02.672Z,8.77
2023-05-14T08:29:30.765Z,5.50
2023-05-14T08:32:00.294Z,7.18
2023-05-14T08:34:29.921Z,7.05
2023-05-14T08:36:57.492Z,6.45
2023-05-14T08:39:25.118Z,5.50
2023-05-14T08:41:52.850Z,6.60
2023-05-14T08:44:28.226Z,6.32
2023-05-14T08:46:56.493Z,7.45
2023-05-14T08:49:47.380Z,7.03
2023-05-14T08:52:17.842Z,6.43
2023-05-14T08:54:48.302Z,8.53
2023-05-14T08:57:18.697Z,6.53
2023-05-14T08:59:46.413Z,6.55
2023-05-14T09:02:15.303Z,5.15
2023-05-14T09:04:43.462Z,7.03
2023-05-14T09:07:11.652Z,6.37
2023-05-14T09:09:40.137Z,6.63
2023-05-14T09:12:08.212Z,7.78
2023-05-14T09:14:35.990Z,10.27
2023-05-14T09:17:03.790Z,8.23
2023-05-14T09:19:31.705Z,7.77
2023-05-14T09:21:59.337Z,7.20
2023-05-14T09:24:30.903Z,6.95
2023-05-14T09:26:59.204Z,6.20
2023-05-14T09:29:29.367Z,6.65
2023-05-14T09:31:58.607Z,6.47
2023-05-14T09:34:31.177Z,8.93
2023-05-14T09:37:04.069Z,9.05
2023-05-14T09:39:33.934Z,5.80
2023-05-14T09:45:12.876Z,5.20
2023-05-14T09:47:41.502Z,8.13
2023-05-14T09:50:09.507Z,7.47
2023-05-14T09:52:37.437Z,10.23
2023-05-14T09:55:05.770Z,7.75
2023-05-14T09:57:34.668Z,5.97
2023-05-14T10:00:02.475Z,6.65
2023-05-14T10:02:38.402Z,7.40
2023-05-14T10:05:08.025Z,6.93
2023-05-14T10:07:41.743Z,7.97
2023-05-14T10:10:15.865Z,6.27
2023-05-14T10:12:51.734Z,5.85
2023-05-14T10:15:58.842Z,5.05
2023-05-14T10:18:31.192Z,5.68
2023-05-14T10:21:06.421Z,7.95
2023-05-14T10:23:37.877Z,6.47
2023-05-14T10:26:06.609Z,4.88
2023-05-14T10:28:34.756Z,6.47
2023-05-14T10:31:02.557Z,5.57
2023-05-14T10:33:30.563Z,5.03
2023-05-14T10:36:01.988Z,5.93
2023-05-14T10:38:32.798Z,10.55
2023-05-14T10:41:07.548Z,5.50
2023-05-14T10:43:40.700Z,5.03
2023-05-14T10:46:09.949Z,5.32
2023-05-14T10:48:39.234Z,4.63
2023-05-14T10:51:09.358Z,4.57
2023-05-14T10:54:08.444Z,4.15
2023-05-14T10:56:37.364Z,4.65
2023-05-14T10:59:06.862Z,4.03
2023-05-14T11:01:35.131Z,3.07
2023-05-14T11:04:03.758Z,2.97
2023-05-14T11:06:31.635Z,3.45
2023-05-14T11:09:01.724Z,3.60
2023-05-14T11:11:29.599Z,4.70
2023-05-14T11:13:57.389Z,4.07
2023-05-14T11:16:30.848Z,2.88
2023-05-14T11:19:03.643Z,2.50
2023-05-14T11:21:32.953Z,2.40
2023-05-14T11:24:01.480Z,3.65
2023-05-14T11:26:29.162Z,2.63
2023-05-14T11:28:56.976Z,2.65
2023-05-14T11:31:25.713Z,3.40
2023-05-14T11:33:53.695Z,2.40
2023-05-14T11:36:22.287Z,4.07
2023-05-14T11:38:51.556Z,2.90
2023-05-14T11:41:21.642Z,2.42
2023-05-14T11:43:49.495Z,2.65
2023-05-14T11:46:21.932Z,4.10
2023-05-14T11:48:49.748Z,3.45
2023-05-14T11:51:17.302Z,2.10
2023-05-14T11:53:45.633Z,4.82
2023-05-14T11:56:13.350Z,2.22
2023-05-14T11:58:41.050Z,3.13
2023-05-14T12:01:13.592Z,2.55
2023-05-14T12:03:41.579Z,2.73
2023-05-14T12:06:09.190Z,3.20
2023-05-14T12:08:37.793Z,1.77
2023-05-14T12:11:05.508Z,1.90
2023-05-14T12:13:33.525Z,4.53
2023-05-14T12:16:05.592Z,2.40
2023-05-14T12:18:33.908Z,2.58
2023-05-14T12:21:07.970Z,1.63
2023-05-14T12:23:35.879Z,2.55
2023-05-14T12:26:08.379Z,1.88
2023-05-14T12:28:43.489Z,2.87
2023-05-14T12:31:11.490Z,1.60
2023-05-14T12:33:39.154Z,4.72
2023-05-14T12:39:28.068Z,3.38
2023-05-14T12:41:55.955Z,4.30
2023-05-14T12:44:23.632Z,2.05
2023-05-14T12:53:42.852Z,4.55
2023-05-14T12:59:25.821Z,6.22
2023-05-14T13:01:53.410Z,3.85
2023-05-14T13:04:27.418Z,3.80
2023-05-14T13:06:55.174Z,5.80
2023-05-14T13:09:22.753Z,4.63
2023-05-14T13:11:50.400Z,5.82
2023-05-14T13:14:26.872Z,4.53
2023-05-14T13:16:54.648Z,6.38
2023-05-14T13:19:27.773Z,8.82
2023-05-14T13:21:55.459Z,4.13
2023-05-14T13:24:25.027Z,4.90
2023-05-14T13:26:55.956Z,4.50
2023-05-14T13:29:23.923Z,6.07
2023-05-14T13:31:51.424Z,6.75
2023-05-14T13:34:19.128Z,5.03
2023-05-14T13:36:47.315Z,7.40
2023-05-14T13:39:14.850Z,5.03
2023-05-14T13:41:42.716Z,5.25
2023-05-14T13:44:10.398Z,5.63
2023-05-14T13:46:38.150Z,7.27
2023-05-14T13:49:06.607Z,6.55
2023-05-14T13:51:34.136Z,7.85
2023-05-14T13:54:01.724Z,11.02
2023-05-14T13:56:29.408Z,8.98
2023-05-14T13:58:57.007Z,7.33
2023-05-14T14:01:24.622Z,6.28
2023-05-14T14:03:52.265Z,7.63
2023-05-14T14:06:19.815Z,10.27
2023-05-14T14:08:47.453Z,8.00
2023-05-14T14:11:15.101Z,7.23
2023-05-14T14:13:43.769Z,5.18
2023-05-14T14:16:12.683Z,9.60
2023-05-14T14:18:40.424Z,9.57
2023-05-14T14:21:08.032Z,6.82
2023-05-14T14:23:35.588Z,6.20
2023-05-14T14:26:03.860Z,10.77
2023-05-14T14:28:31.594Z,9.93
2023-05-14T14:30:59.294Z,8.27
2023-05-14T14:33:27.997Z,6.78
2023-05-14T14:35:56.202Z,10.07
2023-05-14T14:38:24.994Z,10.80
2023-05-14T14:40:52.600Z,8.70
2023-05-14T14:43:20.552Z,6.30
2023-05-14T14:45:49.047Z,5.43
2023-05-14T14:48:25.261Z,7.17
2023-05-14T14:50:53.781Z,9.88
2023-05-14T14:53:25.209Z,7.60
2023-05-14T14:55:53.392Z,8.10
2023-05-14T14:58:21.287Z,5.80
2023-05-14T15:00:51.310Z,8.63
2023-05-14T15:03:19.416Z,7.15
2023-05-14T15:05:47.716Z,6.63
2023-05-14T15:08:15.788Z,8.23
2023-05-14T15:10:44.949Z,6.30
2023-05-14T15:13:13.049Z,7.57
2023-05-14T15:15:40.786Z,7.75
2023-05-14T15:18:08.465Z,7.82
2023-05-14T15:20:36.324Z,6.35
2023-05-14T15:23:03.990Z,8.38
2023-05-14T15:25:31.655Z,4.57
2023-05-14T15:27:59.355Z,6.75
2023-05-14T15:30:26.965Z,7.93
2023-05-14T15:32:55.493Z,7.35
2023-05-14T15:35:23.326Z,6.68
2023-05-14T15:37:51.116Z,5.13
2023-05-14T15:40:19.113Z,7.00
2023-05-14T15:42:47.073Z,6.95
2023-05-14T15:45:14.977Z,5.72
2023-05-14T15:47:42.584Z,5.68
2023-05-14T15:50:10.263Z,6.90
2023-05-14T15:52:39.477Z,8.15
2023-05-14T15:55:07.640Z,47.67
2023-05-14T15:57:35.420Z,12.90
2023-05-14T16:00:10.414Z,5.03
2023-05-14T16:02:39.413Z,6.23
2023-05-14T16:05:08.386Z,6.85
2023-05-14T16:07:36.630Z,4.75
2023-05-14T16:10:05.032Z,5.28
2023-05-14T16:12:32.710Z,4.93
2023-05-14T16:15:00.545Z,4.73
2023-05-14T16:17:28.659Z,6.90
2023-05-14T16:19:56.635Z,3.63
2023-05-14T16:22:24.304Z,6.72
2023-05-14T16:24:51.940Z,5.45
2023-05-14T16:27:19.591Z,5.70
2023-05-14T16:29:47.228Z,6.40
2023-05-14T16:32:14.886Z,5.22
2023-05-14T16:34:47.493Z,6.30
2023-05-14T16:37:20.038Z,4.78
2023-05-14T16:39:48.192Z,4.27
2023-05-14T16:42:15.748Z,4.70
2023-05-14T16:44:43.361Z,6.68
2023-05-14T16:47:11.209Z,5.93
2023-05-14T16:49:38.906Z,7.95
2023-05-14T16:52:07.005Z,2.93
2023-05-14T16:54:35.138Z,5.72
2023-05-14T16:57:02.801Z,7.50
2023-05-14T16:59:30.420Z,5.70
2023-05-14T17:01:58.037Z,7.43
2023-05-14T17:04:26.682Z,7.77
2023-05-14T17:06:54.797Z,3.72
2023-05-14T17:09:22.630Z,5.05
2023-05-14T17:11:50.210Z,5.43
2023-05-14T17:14:17.761Z,7.18
2023-05-14T17:16:45.418Z,4.90
2023-05-14T17:19:13.083Z,4.28
2023-05-14T17:21:40.698Z,8.60
2023-05-14T17:24:08.467Z,6.95
2023-05-14T17:26:37.704Z,4.90
2023-05-14T17:29:05.321Z,5.53
2023-05-14T17:31:32.917Z,4.10
2023-05-14T17:34:00.843Z,6.53
2023-05-14T17:36:28.697Z,5.18
2023-05-14T17:38:56.292Z,6.55
2023-05-14T17:41:24.019Z,5.90
2023-05-14T17:43:52.582Z,6.32
2023-05-14T17:46:21.376Z,5.45
2023-05-14T17:48:48.926Z,5.30
2023-05-14T17:51:16.557Z,7.18
2023-05-14T17:53:44.233Z,3.83
2023-05-14T17:56:12.186Z,6.70
2023-05-14T17:58:39.856Z,6.32
2023-05-14T18:01:07.751Z,7.18
2023-05-14T18:03:35.644Z,4.40
2023-05-14T18:06:03.672Z,5.70
2023-05-14T18:08:31.315Z,5.10
2023-05-14T18:11:00.797Z,9.07
2023-05-14T18:13:28.357Z,6.05
2023-05-14T18:15:56.671Z,5.28
2023-05-14T18:18:24.472Z,7.37
2023-05-14T18:20:53.047Z,7.20
2023-05-14T18:23:20.646Z,6.57
2023-05-14T18:25:48.757Z,4.97
2023-05-14T18:28:16.489Z,10.43
2023-05-14T18:30:45.552Z,6.97
2023-05-14T18:33:13.284Z,5.20
2023-05-14T18:35:43.623Z,5.45
2023-05-14T18:38:12.507Z,6.95
2023-05-14T18:40:40.018Z,8.95
2023-05-14T18:43:07.709Z,7.77
2023-05-14T18:45:35.376Z,9.18
2023-05-14T18:48:03.102Z,9.05
2023-05-14T18:50:30.814Z,7.68
2023-05-14T18:52:58.424Z,7.57
2023-05-14T18:55:26.426Z,8.90
2023-05-14T18:57:54.373Z,6.70
2023-05-14T19:00:21.993Z,6.18
2023-05-14T19:02:49.723Z,6.38
2023-05-14T19:05:17.384Z,9.43
2023-05-14T19:07:48.430Z,6.27
2023-05-14T19:10:15.978Z,8.00
2023-05-14T19:12:43.552Z,6.53
2023-05-14T19:15:11.721Z,6.93
2023-05-14T19:17:39.456Z,11.10
2023-05-14T19:20:08.118Z,5.90
2023-05-14T19:22:35.817Z,10.45
2023-05-14T19:25:04.386Z,8.93
2023-05-14T19:27:32.958Z,10.77
2023-05-14T19:30:00.663Z,7.60
2023-05-14T19:32:28.255Z,7.37
2023-05-14T19:34:55.967Z,8.80
2023-05-14T19:37:24.082Z,7.50
2023-05-14T19:39:51.636Z,8.02
2023-05-14T19:42:19.314Z,12.07
2023-05-14T19:44:46.854Z,6.53
2023-05-14T19:47:14.860Z,6.68
2023-05-14T19:49:42.540Z,13.02
2023-05-14T19:52:13.406Z,9.05
2023-05-14T19:54:43.829Z,6.57
2023-05-14T19:57:11.759Z,7.90
2023-05-14T19:59:39.526Z,9.00
2023-05-14T20:02:18.265Z,9.77
2023-05-14T20:09:26.076Z,8.85
2023-05-14T20:11:56.583Z,10.27
2023-05-14T21:23:03.816Z,7.72
2023-05-14T21:26:14.750Z,11.07
2023-05-14T21:37:31.625Z,11.07
2023-05-14T21:40:00.505Z,12.10
2023-05-14T21:42:28.000Z,7.15
2023-05-14T21:44:55.570Z,7.72
2023-05-14T21:47:23.173Z,9.68
2023-05-14T21:49:50.829Z,5.13
2023-05-14T22:06:14.273Z,9.90
2023-05-14T22:08:44.600Z,8.30
2023-05-14T22:11:12.224Z,6.95
2023-05-14T22:13:41.175Z,10.15
2023-05-14T22:25:13.602Z,5.93
2023-05-14T22:27:41.304Z,6.03
2023-05-14T22:39:31.858Z,7.20
2023-05-14T22:42:02.194Z,6.07
2023-05-14T22:44:30.129Z,7.78
2023-05-14T22:46:58.001Z,6.50
2023-05-14T22:49:25.684Z,10.55
2023-05-14T22:51:54.341Z,4.28
2023-05-14T22:54:21.927Z,5.10
2023-05-14T22:56:49.617Z,5.07
2023-05-14T22:59:17.196Z,6.55
2023-05-14T23:01:44.974Z,8.00
2023-05-14T23:04:12.633Z,9.05
2023-05-14T23:06:40.318Z,8.43
2023-05-14T23:09:07.997Z,6.93
2023-05-14T23:11:35.498Z,6.90
2023-05-14T23:14:03.065Z,6.53
2023-05-14T23:16:30.755Z,5.70
2023-05-14T23:18:58.528Z,6.13
2023-05-14T23:21:26.277Z,11.85
2023-05-14T23:23:53.847Z,10.55
2023-05-14T23:26:21.798Z,7.00
2023-05-14T23:28:49.450Z,9.23
2023-05-14T23:31:17.607Z,5.50
2023-05-14T23:33:46.404Z,6.10
2023-05-14T23:36:14.007Z,6.18
2023-05-14T23:38:41.866Z,6.40
2023-05-14T23:41:09.430Z,5.57
2023-05-14T23:43:37.003Z,5.13
2023-05-14T23:46:04.623Z,4.57
2023-05-14T23:48:32.432Z,13.48
2023-05-14T23:50:59.921Z,7.60
2023-05-14T23:53:27.560Z,5.78
2023-05-14T23:55:55.090Z,6.87
2023-05-14T23:58:22.860Z,8.73
